createdAt,value
2022-08-17T00:01:32.770Z,23.74
2022-08-17T00:04:19.059Z,23.85
2022-08-17T00:06:45.823Z,23.86
2022-08-17T00:09:12.575Z,23.65
2022-08-17T00:12:35.091Z,23.46
2022-08-17T00:14:31.827Z,23.49
2022-08-17T00:16:58.836Z,23.47
2022-08-17T00:19:26.361Z,23.30
2022-08-17T00:22:31.323Z,23.31
2022-08-17T00:24:43.055Z,23.35
2022-08-17T00:27:09.540Z,23.31
2022-08-17T00:29:36.003Z,23.24
2022-08-17T00:33:13.959Z,23.05
2022-08-17T00:34:49.977Z,23.03
2022-08-17T00:37:16.678Z,22.96
2022-08-17T00:39:43.237Z,22.89
2022-08-17T00:42:14.933Z,22.84
2022-08-17T00:44:41.398Z,22.88
2022-08-17T00:47:07.930Z,22.92
2022-08-17T00:49:34.434Z,22.89
2022-08-17T00:52:10.875Z,22.84
2022-08-17T00:54:42.389Z,22.87
2022-08-17T00:57:15.030Z,22.85
2022-08-17T00:59:47.173Z,22.96
2022-08-17T01:02:41.256Z,23.04
2022-08-17T01:05:15.273Z,23.14
2022-08-17T01:07:43.392Z,23.11
2022-08-17T01:11:00.255Z,23.15
2022-08-17T01:13:02.489Z,23.18
2022-08-17T01:15:36.427Z,23.18
2022-08-17T01:18:07.889Z,23.13
2022-08-17T01:20:48.614Z,23.14
2022-08-17T01:23:20.818Z,23.20
2022-08-17T01:25:53.968Z,23.21
2022-08-17T01:28:33.630Z,23.17
2022-08-17T01:31:09.602Z,23.30
2022-08-17T01:33:36.834Z,23.43
2022-08-17T01:36:06.871Z,23.34
2022-08-17T01:38:35.893Z,23.23
2022-08-17T01:41:07.824Z,23.20
2022-08-17T01:43:57.340Z,23.33
2022-08-17T01:46:29.179Z,23.39
2022-08-17T01:48:57.560Z,23.35
2022-08-17T01:51:32.721Z,23.33
2022-08-17T01:54:05.209Z,23.39
2022-08-17T01:56:33.883Z,23.48
2022-08-17T01:59:00.358Z,23.54
2022-08-17T02:01:30.135Z,23.45
2022-08-17T02:04:00.769Z,23.46
2022-08-17T02:06:30.523Z,23.36
2022-08-17T02:09:03.051Z,23.36
2022-08-17T02:11:33.171Z,23.27
2022-08-17T02:14:02.887Z,23.29
2022-08-17T02:16:37.288Z,23.31
2022-08-17T02:19:07.531Z,23.23
2022-08-17T02:21:34.639Z,23.23
2022-08-17T02:24:01.773Z,23.17
2022-08-17T02:26:28.370Z,23.15
2022-08-17T02:28:54.934Z,23.12
2022-08-17T02:31:21.689Z,23.17
2022-08-17T02:34:00.422Z,23.17
2022-08-17T02:36:33.041Z,23.10
2022-08-17T02:39:01.451Z,23.02
2022-08-17T02:41:28.006Z,23.00
2022-08-17T02:43:54.490Z,23.05
2022-08-17T02:46:21.024Z,23.05
2022-08-17T02:48:47.526Z,23.01
2022-08-17T02:51:14.589Z,23.01
2022-08-17T02:53:41.071Z,23.05
2022-08-17T02:56:07.728Z,23.13
2022-08-17T02:58:35.331Z,23.20
2022-08-17T03:01:06.531Z,23.16
2022-08-17T03:03:33.185Z,23.10
2022-08-17T03:05:59.859Z,23.02
2022-08-17T03:08:26.564Z,23.00
2022-08-17T03:10:53.642Z,23.03
2022-08-17T03:13:20.730Z,22.94
2022-08-17T03:15:48.586Z,22.93
2022-08-17T03:18:19.159Z,22.89
2022-08-17T03:20:52.063Z,22.89
2022-08-17T03:23:18.683Z,22.80
2022-08-17T03:25:53.075Z,22.84
2022-08-17T03:28:21.206Z,22.92
2022-08-17T03:30:47.712Z,22.94
2022-08-17T03:33:14.618Z,22.95
2022-08-17T03:35:41.475Z,22.92
2022-08-17T03:38:10.275Z,22.89
2022-08-17T03:40:58.057Z,22.88
2022-08-17T03:43:24.225Z,22.85
2022-08-17T03:46:26.997Z,22.83
2022-08-17T03:49:15.558Z,22.78
2022-08-17T03:52:00.349Z,22.84
2022-08-17T03:54:45.180Z,22.94
2022-08-17T03:57:12.427Z,22.93
2022-08-17T03:59:39.098Z,22.81
2022-08-17T04:02:18.595Z,22.80
2022-08-17T04:04:45.130Z,22.75
2022-08-17T04:07:11.697Z,22.62
2022-08-17T04:09:38.261Z,22.61
2022-08-17T04:12:05.453Z,22.53
2022-08-17T04:14:39.256Z,22.47
2022-08-17T04:17:21.203Z,22.49
2022-08-17T04:19:47.763Z,22.50
2022-08-17T04:22:30.188Z,22.48
2022-08-17T04:24:58.899Z,22.48
2022-08-17T04:27:25.508Z,22.40
2022-08-17T04:29:54.763Z,22.33
2022-08-17T04:33:02.920Z,22.46
2022-08-17T04:35:09.722Z,22.55
2022-08-17T04:37:36.212Z,22.50
2022-08-17T04:40:21.986Z,22.55
2022-08-17T04:43:10.638Z,22.54
2022-08-17T04:45:55.458Z,22.59
2022-08-17T04:48:35.774Z,22.59
2022-08-17T04:51:07.305Z,22.60
2022-08-17T04:53:33.874Z,22.55
2022-08-17T04:56:00.405Z,22.55
2022-08-17T04:58:27.826Z,22.54
2022-08-17T05:00:54.345Z,22.60
2022-08-17T05:03:20.961Z,22.66
2022-08-17T05:05:49.586Z,22.70
2022-08-17T05:08:19.045Z,22.81
2022-08-17T05:10:46.882Z,22.89
2022-08-17T05:13:17.033Z,23.01
2022-08-17T05:15:47.794Z,23.09
2022-08-17T05:18:15.637Z,23.04
2022-08-17T05:20:42.850Z,22.96
2022-08-17T05:23:12.989Z,22.98
2022-08-17T05:25:42.235Z,23.10
2022-08-17T05:28:15.981Z,23.20
2022-08-17T05:30:43.986Z,23.25
2022-08-17T05:33:14.919Z,23.24
2022-08-17T05:35:46.922Z,23.17
2022-08-17T05:38:15.264Z,23.13
2022-08-17T05:40:41.992Z,23.06
2022-08-17T05:43:15.161Z,23.13
2022-08-17T05:46:01.913Z,23.27
2022-08-17T05:48:39.176Z,23.34
2022-08-17T05:51:06.674Z,23.35
2022-08-17T05:53:47.189Z,23.38
2022-08-17T05:56:37.299Z,23.32
2022-08-17T05:59:30.490Z,23.35
2022-08-17T06:02:06.169Z,23.38
2022-08-17T06:04:54.060Z,23.49
2022-08-17T06:07:48.058Z,23.66
2022-08-17T06:10:18.468Z,23.74
2022-08-17T06:13:21.431Z,23.70
2022-08-17T06:15:56.413Z,23.95
2022-08-17T06:18:28.609Z,24.04
2022-08-17T06:21:00.403Z,24.29
2022-08-17T06:23:36.125Z,24.05
2022-08-17T06:26:10.986Z,23.83
2022-08-17T06:28:43.622Z,23.81
2022-08-17T06:31:22.553Z,24.01
2022-08-17T06:33:50.305Z,24.24
2022-08-17T06:36:50.460Z,24.43
2022-08-17T06:39:32.828Z,24.40
2022-08-17T06:42:54.812Z,24.45
2022-08-17T06:45:17.711Z,24.45
2022-08-17T06:48:13.069Z,24.56
2022-08-17T06:50:46.497Z,24.80
2022-08-17T06:53:47.648Z,24.93
2022-08-17T06:56:54.227Z,24.90
2022-08-17T06:59:22.319Z,24.69
2022-08-17T07:01:52.122Z,24.47
2022-08-17T07:04:26.437Z,24.33
2022-08-17T07:07:24.724Z,24.39
2022-08-17T07:09:53.019Z,24.59
2022-08-17T07:12:24.341Z,24.66
2022-08-17T07:15:18.939Z,24.51
2022-08-17T07:17:48.957Z,24.74
2022-08-17T07:20:20.541Z,24.55
2022-08-17T07:23:03.315Z,24.66
2022-08-17T07:25:30.746Z,24.67
2022-08-17T07:28:02.400Z,24.82
2022-08-17T07:30:45.594Z,25.05
2022-08-17T07:33:19.856Z,25.08
2022-08-17T07:35:48.404Z,25.05
2022-08-17T07:38:25.205Z,25.01
2022-08-17T07:40:57.813Z,25.09
2022-08-17T07:43:36.817Z,24.98
2022-08-17T07:46:53.791Z,24.95
2022-08-17T07:49:46.403Z,25.13
2022-08-17T07:52:51.408Z,25.09
2022-08-17T07:55:34.976Z,25.26
2022-08-17T07:58:04.858Z,25.11
2022-08-17T08:00:33.568Z,25.09
2022-08-17T08:03:31.965Z,25.36
2022-08-17T08:06:02.080Z,25.53
2022-08-17T08:08:34.724Z,25.56
2022-08-17T08:11:17.802Z,25.54
2022-08-17T08:13:45.898Z,25.50
2022-08-17T08:16:29.498Z,25.59
2022-08-17T08:19:01.736Z,25.57
2022-08-17T08:21:55.304Z,25.66
2022-08-17T08:24:46.649Z,25.70
2022-08-17T08:27:38.463Z,25.78
2022-08-17T08:30:16.824Z,25.82
2022-08-17T08:32:52.036Z,25.78
2022-08-17T08:35:22.584Z,25.75
2022-08-17T08:38:02.538Z,25.70
2022-08-17T08:40:42.923Z,25.67
2022-08-17T08:43:22.292Z,25.79
2022-08-17T08:46:07.652Z,25.93
2022-08-17T08:48:55.999Z,25.95
2022-08-17T08:51:33.700Z,26.01
2022-08-17T08:54:10.568Z,26.05
2022-08-17T08:57:22.391Z,26.12
2022-08-17T09:00:08.557Z,26.11
2022-08-17T09:03:10.894Z,26.00
2022-08-17T09:06:06.892Z,26.01
2022-08-17T09:09:09.453Z,25.97
2022-08-17T09:12:20.857Z,26.00
2022-08-17T09:15:15.786Z,25.98
2022-08-17T09:17:49.525Z,26.00
2022-08-17T09:20:33.780Z,26.01
2022-08-17T09:23:08.586Z,26.19
2022-08-17T09:25:56.261Z,26.42
2022-08-17T09:28:44.756Z,26.50
2022-08-17T09:31:20.259Z,26.38
2022-08-17T09:33:48.884Z,26.34
2022-08-17T09:36:26.337Z,26.37
2022-08-17T09:39:03.155Z,26.43
2022-08-17T09:41:58.251Z,26.51
2022-08-17T09:44:37.873Z,26.65
2022-08-17T09:47:32.186Z,26.74
2022-08-17T09:50:08.971Z,26.79
2022-08-17T09:52:35.643Z,26.80
2022-08-17T09:55:02.215Z,26.89
2022-08-17T09:57:34.682Z,27.02
2022-08-17T10:00:16.589Z,27.10
2022-08-17T10:03:16.065Z,27.14
2022-08-17T10:05:48.866Z,27.13
2022-08-17T10:08:25.507Z,27.13
2022-08-17T10:10:58.964Z,27.16
2022-08-17T10:13:35.477Z,27.25
2022-08-17T10:16:10.786Z,27.09
2022-08-17T10:19:15.573Z,26.88
2022-08-17T10:22:14.711Z,26.90
2022-08-17T10:25:22.679Z,27.04
2022-08-17T10:28:01.703Z,27.14
2022-08-17T10:30:32.648Z,27.21
2022-08-17T10:33:02.748Z,27.27
2022-08-17T10:35:37.654Z,27.09
2022-08-17T10:38:24.404Z,27.02
2022-08-17T10:41:00.364Z,27.21
2022-08-17T10:44:38.282Z,27.34
2022-08-17T10:47:14.393Z,27.44
2022-08-17T10:49:56.083Z,27.64
2022-08-17T10:52:22.880Z,27.64
2022-08-17T10:54:51.392Z,27.69
2022-08-17T10:57:27.390Z,27.71
2022-08-17T10:59:56.070Z,27.97
2022-08-17T11:02:31.430Z,27.97
2022-08-17T11:05:00.671Z,27.95
2022-08-17T11:07:43.730Z,28.27
2022-08-17T11:10:19.250Z,28.45
2022-08-17T11:13:03.932Z,28.47
2022-08-17T11:15:37.926Z,28.42
2022-08-17T11:18:32.511Z,28.51
2022-08-17T11:21:04.911Z,28.51
2022-08-17T11:23:48.453Z,28.43
2022-08-17T11:26:26.504Z,28.35
2022-08-17T11:29:00.009Z,28.43
2022-08-17T11:31:41.472Z,28.44
2022-08-17T11:34:18.453Z,28.39
2022-08-17T11:37:11.696Z,28.40
2022-08-17T11:40:06.520Z,28.39
2022-08-17T11:43:10.689Z,28.51
2022-08-17T11:46:10.810Z,28.69
2022-08-17T11:49:04.994Z,28.75
2022-08-17T11:52:01.196Z,28.68
2022-08-17T11:54:33.835Z,28.69
2022-08-17T11:57:27.040Z,28.63
2022-08-17T11:59:53.502Z,28.76
2022-08-17T12:02:19.897Z,28.73
2022-08-17T12:05:12.413Z,28.83
2022-08-17T12:08:15.139Z,28.73
2022-08-17T12:11:10.665Z,28.60
2022-08-17T12:13:54.446Z,28.71
2022-08-17T12:16:21.935Z,28.74
2022-08-17T12:18:57.959Z,28.88
2022-08-17T12:21:31.379Z,28.71
2022-08-17T12:24:23.415Z,28.64
2022-08-17T12:26:56.814Z,28.46
2022-08-17T12:29:35.718Z,28.49
2022-08-17T12:32:07.073Z,28.63
2022-08-17T12:34:39.063Z,28.72
2022-08-17T12:37:13.432Z,28.77
2022-08-17T12:39:49.862Z,28.70
2022-08-17T12:42:29.954Z,28.74
2022-08-17T12:44:57.251Z,28.84
2022-08-17T12:47:25.029Z,28.97
2022-08-17T12:50:08.181Z,29.02
2022-08-17T12:52:59.697Z,28.89
2022-08-17T12:55:32.561Z,28.93
2022-08-17T12:58:01.872Z,28.91
2022-08-17T13:00:40.929Z,28.79
2022-08-17T13:03:24.199Z,28.78
2022-08-17T13:05:59.841Z,28.75
2022-08-17T13:08:31.345Z,28.69
2022-08-17T13:11:24.497Z,28.59
2022-08-17T13:13:56.988Z,28.54
2022-08-17T13:16:30.418Z,28.57
2022-08-17T13:19:29.788Z,28.53
2022-08-17T13:22:11.337Z,28.48
2022-08-17T13:24:38.659Z,28.42
2022-08-17T13:27:09.650Z,28.36
2022-08-17T13:29:38.976Z,28.43
2022-08-17T13:32:13.042Z,28.46
2022-08-17T13:35:13.197Z,28.50
2022-08-17T13:37:36.551Z,28.42
2022-08-17T13:40:08.823Z,28.36
2022-08-17T13:42:52.339Z,28.37
2022-08-17T13:45:36.341Z,28.34
2022-08-17T13:48:27.977Z,28.39
2022-08-17T13:50:54.393Z,28.49
2022-08-17T13:53:29.482Z,28.58
2022-08-17T13:56:37.801Z,28.62
2022-08-17T13:59:02.744Z,28.62
2022-08-17T14:01:37.442Z,28.52
2022-08-17T14:04:07.780Z,28.44
2022-08-17T14:06:52.892Z,28.33
2022-08-17T14:09:47.831Z,28.28
2022-08-17T14:12:17.436Z,28.24
2022-08-17T14:14:44.955Z,28.22
2022-08-17T14:17:12.424Z,28.16
2022-08-17T14:19:39.572Z,28.14
2022-08-17T14:22:11.585Z,28.08
2022-08-17T14:24:44.601Z,28.05
2022-08-17T14:27:12.042Z,28.05
2022-08-17T14:29:41.017Z,28.04
2022-08-17T14:32:17.765Z,28.04
2022-08-17T14:34:45.871Z,28.07
2022-08-17T14:37:12.454Z,28.05
2022-08-17T14:39:39.047Z,28.02
2022-08-17T14:42:05.693Z,28.00
2022-08-17T14:44:32.472Z,27.99
2022-08-17T14:46:59.013Z,27.93
2022-08-17T14:49:25.956Z,27.88
2022-08-17T14:51:52.857Z,27.89
2022-08-17T14:54:32.850Z,27.83
2022-08-17T14:57:22.193Z,27.80
2022-08-17T14:59:48.804Z,27.70
2022-08-17T15:02:20.150Z,27.71
2022-08-17T15:04:47.669Z,27.72
2022-08-17T15:07:17.817Z,27.74
2022-08-17T15:09:44.326Z,27.78
2022-08-17T15:12:18.187Z,27.81
2022-08-17T15:14:44.681Z,27.80
2022-08-17T15:17:11.531Z,27.76
2022-08-17T15:19:37.981Z,27.71
2022-08-17T15:22:04.507Z,27.64
2022-08-17T15:24:30.974Z,27.58
2022-08-17T15:26:57.469Z,27.52
2022-08-17T15:29:23.990Z,27.46
2022-08-17T15:31:50.486Z,27.42
2022-08-17T15:34:17.376Z,27.40
2022-08-17T15:36:49.231Z,27.36
2022-08-17T15:39:19.220Z,27.29
2022-08-17T15:41:47.265Z,27.23
2022-08-17T15:44:24.603Z,27.18
2022-08-17T15:46:59.280Z,27.13
2022-08-17T15:49:25.784Z,27.12
2022-08-17T15:51:52.263Z,27.12
2022-08-17T15:54:22.755Z,27.11
2022-08-17T15:56:50.277Z,27.04
2022-08-17T15:59:16.747Z,27.04
2022-08-17T16:03:01.766Z,27.08
2022-08-17T16:04:31.808Z,27.06
2022-08-17T16:06:59.887Z,26.99
2022-08-17T16:09:26.735Z,26.92
2022-08-17T16:11:55.520Z,26.83
2022-08-17T16:14:24.115Z,26.70
2022-08-17T16:16:51.063Z,26.59
2022-08-17T16:19:17.626Z,26.46
2022-08-17T16:21:44.105Z,26.31
2022-08-17T16:24:13.181Z,26.23
2022-08-17T16:26:39.986Z,26.08
2022-08-17T16:29:06.843Z,25.97
2022-08-17T16:31:33.596Z,25.83
2022-08-17T16:34:15.806Z,25.76
2022-08-17T16:36:55.182Z,25.77
2022-08-17T16:39:27.392Z,25.61
2022-08-17T16:41:55.668Z,25.63
2022-08-17T16:44:22.432Z,25.62
2022-08-17T16:46:48.987Z,25.55
2022-08-17T16:49:35.425Z,25.46
2022-08-17T16:52:09.613Z,25.41
2022-08-17T16:54:43.496Z,25.37
2022-08-17T16:57:11.303Z,25.23
2022-08-17T16:59:40.993Z,25.12
2022-08-17T17:02:14.378Z,25.13
2022-08-17T17:05:18.723Z,25.03
2022-08-17T17:08:17.508Z,24.87
2022-08-17T17:10:57.286Z,24.83
2022-08-17T17:13:34.786Z,24.92
2022-08-17T17:16:28.645Z,25.06
2022-08-17T17:19:34.318Z,25.05
2022-08-17T17:22:27.550Z,25.13
2022-08-17T17:25:15.950Z,25.00
2022-08-17T17:27:48.359Z,24.83
2022-08-17T17:30:20.665Z,24.83
2022-08-17T17:33:13.825Z,24.97
2022-08-17T17:35:59.464Z,24.96
2022-08-17T17:38:34.342Z,24.89
2022-08-17T17:41:08.564Z,24.88
2022-08-17T17:43:40.266Z,24.93
2022-08-17T17:46:29.294Z,24.97
2022-08-17T17:48:59.555Z,24.92
2022-08-17T17:52:06.887Z,24.84
2022-08-17T17:54:55.128Z,24.83
2022-08-17T17:57:44.141Z,24.90
2022-08-17T18:00:19.567Z,24.94
2022-08-17T18:03:05.618Z,24.80
2022-08-17T18:05:44.438Z,24.68
2022-08-17T18:08:35.715Z,24.75
2022-08-17T18:11:26.647Z,24.72
2022-08-17T18:14:22.982Z,24.51
2022-08-17T18:16:55.535Z,24.46
2022-08-17T18:19:25.632Z,24.52
2022-08-17T18:22:02.608Z,24.53
2022-08-17T18:24:39.215Z,24.57
2022-08-17T18:27:21.511Z,24.43
2022-08-17T18:29:49.410Z,24.31
2022-08-17T18:32:21.873Z,24.14
2022-08-17T18:34:55.906Z,24.10
2022-08-17T18:37:33.908Z,24.09
2022-08-17T18:40:20.283Z,24.01
2022-08-17T18:43:26.681Z,23.82
2022-08-17T18:45:56.722Z,23.81
2022-08-17T18:48:33.789Z,23.82
2022-08-17T18:51:20.285Z,23.76
2022-08-17T18:54:06.631Z,23.72
2022-08-17T18:56:40.328Z,23.66
2022-08-17T18:59:23.105Z,23.63
2022-08-17T19:02:15.341Z,23.56
2022-08-17T19:05:07.747Z,23.58
2022-08-17T19:07:43.337Z,23.68
2022-08-17T19:10:28.169Z,23.70
2022-08-17T19:13:12.809Z,23.69
2022-08-17T19:15:48.003Z,23.76
2022-08-17T19:18:39.257Z,23.75
2022-08-17T19:21:16.461Z,23.69
2022-08-17T19:24:19.332Z,23.73
2022-08-17T19:26:55.495Z,23.76
2022-08-17T19:29:38.525Z,23.80
2022-08-17T19:32:07.893Z,23.78
2022-08-17T19:34:37.179Z,23.70
2022-08-17T19:37:31.042Z,23.83
2022-08-17T19:40:09.769Z,23.90
2022-08-17T19:42:54.995Z,23.97
2022-08-17T19:45:45.098Z,23.89
2022-08-17T19:48:14.513Z,23.86
2022-08-17T19:50:54.163Z,23.86
2022-08-17T19:53:36.884Z,23.78
2022-08-17T19:56:31.049Z,23.68
2022-08-17T19:59:11.275Z,23.49
2022-08-17T20:02:01.086Z,23.54
2022-08-17T20:04:32.007Z,23.46
2022-08-17T20:07:23.481Z,23.42
2022-08-17T20:09:54.058Z,23.42
2022-08-17T20:12:26.617Z,23.44
2022-08-17T20:15:00.010Z,23.47
2022-08-17T20:17:39.335Z,23.50
2022-08-17T20:20:20.864Z,23.51
2022-08-17T20:23:11.825Z,23.54
2022-08-17T20:25:45.311Z,23.57
2022-08-17T20:28:23.900Z,23.59
2022-08-17T20:30:52.006Z,23.67
2022-08-17T20:33:25.147Z,23.68
2022-08-17T20:36:19.445Z,23.70
2022-08-17T20:38:53.700Z,23.71
2022-08-17T20:41:23.698Z,23.75
2022-08-17T20:44:03.212Z,23.77
2022-08-17T20:46:49.805Z,23.79
2022-08-17T20:49:17.169Z,23.79
2022-08-17T20:52:07.632Z,23.80
2022-08-17T20:54:52.210Z,23.89
2022-08-17T20:57:36.714Z,23.83
2022-08-17T21:00:14.949Z,23.81
2022-08-17T21:02:47.293Z,23.82
2022-08-17T21:05:59.843Z,23.80
2022-08-17T21:08:37.225Z,23.68
2022-08-17T21:12:02.311Z,23.66
2022-08-17T21:14:26.687Z,23.65
2022-08-17T21:17:14.844Z,23.62
2022-08-17T21:20:11.960Z,23.62
2022-08-17T21:23:06.641Z,23.52
2022-08-17T21:25:57.665Z,23.53
2022-08-17T21:29:00.463Z,23.50
2022-08-17T21:31:38.238Z,23.49
2022-08-17T21:34:45.222Z,23.48
2022-08-17T21:37:22.185Z,23.33
2022-08-17T21:40:18.209Z,23.29
2022-08-17T21:42:47.698Z,23.33
2022-08-17T21:45:22.274Z,23.31
2022-08-17T21:48:09.025Z,23.30
2022-08-17T21:50:36.025Z,23.26
2022-08-17T21:53:04.038Z,23.22
2022-08-17T21:55:33.942Z,23.22
2022-08-17T21:58:13.675Z,23.13
2022-08-17T22:00:44.310Z,23.04
2022-08-17T22:03:24.188Z,23.05
2022-08-17T22:05:51.318Z,23.11
2022-08-17T22:08:21.426Z,23.14
2022-08-17T22:10:50.674Z,23.17
2022-08-17T22:13:17.689Z,23.17
2022-08-17T22:15:48.041Z,23.19
2022-08-17T22:18:25.006Z,23.07
2022-08-17T22:21:02.468Z,22.97
2022-08-17T22:23:50.888Z,23.01
2022-08-17T22:26:19.505Z,22.97
2022-08-17T22:28:56.345Z,22.93
2022-08-17T22:31:27.755Z,22.90
2022-08-17T22:33:59.896Z,22.89
2022-08-17T22:36:26.355Z,22.82
2022-08-17T22:39:02.079Z,22.89
2022-08-17T22:41:51.804Z,22.92
2022-08-17T22:44:34.062Z,22.91
2022-08-17T22:47:06.701Z,22.83
2022-08-17T22:49:54.132Z,22.68
2022-08-17T22:53:01.831Z,22.63
2022-08-17T22:55:51.693Z,22.74
2022-08-17T22:58:38.980Z,22.65
2022-08-17T23:01:25.511Z,22.57
2022-08-17T23:04:35.720Z,22.59
2022-08-17T23:07:02.275Z,22.61
2022-08-17T23:09:29.854Z,22.57
2022-08-17T23:11:58.449Z,22.50
2022-08-17T23:14:31.535Z,22.46
2022-08-17T23:17:02.030Z,22.33
2022-08-17T23:19:31.598Z,22.37
2022-08-17T23:21:59.206Z,22.32
2022-08-17T23:24:28.861Z,22.23
2022-08-17T23:26:59.966Z,22.05
2022-08-17T23:29:29.207Z,21.89
2022-08-17T23:31:59.615Z,21.96
2022-08-17T23:34:27.983Z,21.96
2022-08-17T23:36:55.146Z,21.88
2022-08-17T23:39:24.682Z,21.83
2022-08-17T23:41:57.021Z,21.81
2022-08-17T23:44:23.809Z,21.85
2022-08-17T23:49:20.227Z,21.88
2022-08-17T23:51:48.151Z,21.71
2022-08-17T23:54:34.011Z,21.64
2022-08-17T23:57:02.183Z,21.61
2022-08-17T23:59:29.182Z,21.65
